sensor_id;sensor_type;location;lat;lon;timestamp;pressure;altitude;pressure_sealevel;temperature;humidity
50632;BME280;49583;45.590;-122.498;2023-02-15T00:01:53;101948.45;;;6.85;65.22
50632;BME280;49583;45.590;-122.498;2023-02-15T00:04:09;101951.38;;;6.85;65.02
50632;BME280;49583;45.590;-122.498;2023-02-15T00:06:22;101951.60;;;6.85;65.09
50632;BME280;49583;45.590;-122.498;2023-02-15T00:08:35;101951.05;;;6.85;64.84
50632;BME280;49583;45.590;-122.498;2023-02-15T00:10:48;101952.13;;;6.83;64.72
50632;BME280;49583;45.590;-122.498;2023-02-15T00:13:02;101948.79;;;6.81;64.77
50632;BME280;49583;45.590;-122.498;2023-02-15T00:15:16;101949.23;;;6.79;64.69
50632;BME280;49583;45.590;-122.498;2023-02-15T00:17:30;101957.31;;;6.80;64.85
50632;BME280;49583;45.590;-122.498;2023-02-15T00:19:42;101956.96;;;6.78;64.49
50632;BME280;49583;45.590;-122.498;2023-02-15T00:21:56;101958.23;;;6.75;64.42
50632;BME280;49583;45.590;-122.498;2023-02-15T00:24:15;101960.17;;;6.71;64.32
50632;BME280;49583;45.590;-122.498;2023-02-15T00:26:30;101963.25;;;6.69;64.47
50632;BME280;49583;45.590;-122.498;2023-02-15T00:28:44;101965.99;;;6.67;64.36
50632;BME280;49583;45.590;-122.498;2023-02-15T00:31:05;101968.67;;;6.65;64.47
50632;BME280;49583;45.590;-122.498;2023-02-15T00:33:19;101973.98;;;6.63;64.32
50632;BME280;49583;45.590;-122.498;2023-02-15T00:35:33;101976.66;;;6.63;64.39
50632;BME280;49583;45.590;-122.498;2023-02-15T00:37:47;101980.48;;;6.62;64.47
50632;BME280;49583;45.590;-122.498;2023-02-15T00:40:01;101981.12;;;6.59;64.22
50632;BME280;49583;45.590;-122.498;2023-02-15T00:42:16;101982.63;;;6.58;64.17
50632;BME280;49583;45.590;-122.498;2023-02-15T00:44:29;101985.70;;;6.56;64.31
50632;BME280;49583;45.590;-122.498;2023-02-15T00:46:42;101986.42;;;6.51;64.05
50632;BME280;49583;45.590;-122.498;2023-02-15T00:48:55;101986.55;;;6.45;64.04
50632;BME280;49583;45.590;-122.498;2023-02-15T00:51:08;101988.01;;;6.40;64.05
50632;BME280;49583;45.590;-122.498;2023-02-15T00:53:21;101995.50;;;6.38;64.38
50632;BME280;49583;45.590;-122.498;2023-02-15T00:55:34;101994.27;;;6.36;64.19
50632;BME280;49583;45.590;-122.498;2023-02-15T00:57:47;101992.82;;;6.33;64.24
50632;BME280;49583;45.590;-122.498;2023-02-15T01:00:00;101998.45;;;6.30;64.13
50632;BME280;49583;45.590;-122.498;2023-02-15T01:02:13;101998.64;;;6.28;64.20
50632;BME280;49583;45.590;-122.498;2023-02-15T01:04:29;102004.27;;;6.26;64.19
50632;BME280;49583;45.590;-122.498;2023-02-15T01:06:42;102004.73;;;6.23;64.25
50632;BME280;49583;45.590;-122.498;2023-02-15T01:08:55;102011.22;;;6.21;64.32
50632;BME280;49583;45.590;-122.498;2023-02-15T01:11:09;102010.22;;;6.23;64.36
50632;BME280;49583;45.590;-122.498;2023-02-15T01:13:22;102012.48;;;6.21;64.00
50632;BME280;49583;45.590;-122.498;2023-02-15T01:15:36;102014.86;;;6.16;63.98
50632;BME280;49583;45.590;-122.498;2023-02-15T01:17:52;102014.86;;;6.12;64.02
50632;BME280;49583;45.590;-122.498;2023-02-15T01:20:06;102014.95;;;6.11;63.93
50632;BME280;49583;45.590;-122.498;2023-02-15T01:22:19;102016.02;;;6.08;63.78
50632;BME280;49583;45.590;-122.498;2023-02-15T01:24:33;102016.59;;;6.05;63.64
50632;BME280;49583;45.590;-122.498;2023-02-15T01:26:45;102022.91;;;6.02;63.54
50632;BME280;49583;45.590;-122.498;2023-02-15T01:28:58;102025.17;;;5.96;63.42
50632;BME280;49583;45.590;-122.498;2023-02-15T01:31:15;102031.38;;;5.92;63.45
50632;BME280;49583;45.590;-122.498;2023-02-15T01:33:28;102036.83;;;5.92;63.71
50632;BME280;49583;45.590;-122.498;2023-02-15T01:35:41;102040.17;;;5.89;63.57
50632;BME280;49583;45.590;-122.498;2023-02-15T01:37:53;102036.45;;;5.87;63.43
50632;BME280;49583;45.590;-122.498;2023-02-15T01:40:08;102036.80;;;5.83;63.34
50632;BME280;49583;45.590;-122.498;2023-02-15T01:42:26;102039.52;;;5.80;63.29
50632;BME280;49583;45.590;-122.498;2023-02-15T01:44:53;102043.63;;;5.78;63.28
50632;BME280;49583;45.590;-122.498;2023-02-15T01:47:07;102043.94;;;5.79;63.46
50632;BME280;49583;45.590;-122.498;2023-02-15T01:49:23;102049.60;;;5.81;63.52
50632;BME280;49583;45.590;-122.498;2023-02-15T01:51:41;102052.02;;;5.83;63.37
50632;BME280;49583;45.590;-122.498;2023-02-15T01:53:57;102054.85;;;5.84;63.70
50632;BME280;49583;45.590;-122.498;2023-02-15T01:56:13;102059.69;;;5.84;63.66
50632;BME280;49583;45.590;-122.498;2023-02-15T01:58:31;102059.90;;;5.85;63.63
50632;BME280;49583;45.590;-122.498;2023-02-15T02:00:44;102061.91;;;5.85;63.74
50632;BME280;49583;45.590;-122.498;2023-02-15T02:02:59;102064.25;;;5.85;63.72
50632;BME280;49583;45.590;-122.498;2023-02-15T02:05:13;102066.95;;;5.86;63.70
50632;BME280;49583;45.590;-122.498;2023-02-15T02:07:29;102067.11;;;5.87;63.98
50632;BME280;49583;45.590;-122.498;2023-02-15T02:09:47;102069.49;;;5.89;63.76
50632;BME280;49583;45.590;-122.498;2023-02-15T02:12:02;102071.46;;;5.88;63.66
50632;BME280;49583;45.590;-122.498;2023-02-15T02:14:15;102074.89;;;5.88;63.68
50632;BME280;49583;45.590;-122.498;2023-02-15T02:16:33;102077.44;;;5.87;63.65
50632;BME280;49583;45.590;-122.498;2023-02-15T02:18:52;102080.83;;;5.84;63.39
50632;BME280;49583;45.590;-122.498;2023-02-15T02:21:45;102083.05;;;5.80;63.62
50632;BME280;49583;45.590;-122.498;2023-02-15T02:35:11;102100.98;;;5.65;63.77
50632;BME280;49583;45.590;-122.498;2023-02-15T02:37:30;102103.27;;;5.64;63.73
50632;BME280;49583;45.590;-122.498;2023-02-15T02:39:55;102106.27;;;5.65;63.78
50632;BME280;49583;45.590;-122.498;2023-02-15T02:42:12;102105.26;;;5.66;63.92
50632;BME280;49583;45.590;-122.498;2023-02-15T02:44:31;102109.71;;;5.65;64.08
50632;BME280;49583;45.590;-122.498;2023-02-15T02:46:52;102111.88;;;5.67;64.00
50632;BME280;49583;45.590;-122.498;2023-02-15T02:49:06;102115.35;;;5.67;63.96
50632;BME280;49583;45.590;-122.498;2023-02-15T02:51:19;102120.23;;;5.69;63.92
50632;BME280;49583;45.590;-122.498;2023-02-15T02:53:34;102122.88;;;5.71;64.21
50632;BME280;49583;45.590;-122.498;2023-02-15T02:55:49;102126.66;;;5.71;63.82
50632;BME280;49583;45.590;-122.498;2023-02-15T02:58:09;102124.79;;;5.70;63.97
50632;BME280;49583;45.590;-122.498;2023-02-15T03:00:25;102126.27;;;5.68;64.04
50632;BME280;49583;45.590;-122.498;2023-02-15T03:02:41;102126.76;;;5.65;63.78
50632;BME280;49583;45.590;-122.498;2023-02-15T03:05:00;102129.17;;;5.62;63.89
50632;BME280;49583;45.590;-122.498;2023-02-15T03:07:20;102129.61;;;5.62;64.05
50632;BME280;49583;45.590;-122.498;2023-02-15T03:09:39;102126.97;;;5.61;64.20
50632;BME280;49583;45.590;-122.498;2023-02-15T03:11:55;102129.01;;;5.62;64.00
50632;BME280;49583;45.590;-122.498;2023-02-15T03:14:08;102133.16;;;5.59;63.83
50632;BME280;49583;45.590;-122.498;2023-02-15T03:16:23;102137.45;;;5.56;64.19
50632;BME280;49583;45.590;-122.498;2023-02-15T03:18:43;102139.05;;;5.55;64.26
50632;BME280;49583;45.590;-122.498;2023-02-15T03:21:03;102142.80;;;5.54;64.54
50632;BME280;49583;45.590;-122.498;2023-02-15T03:23:21;102144.38;;;5.53;64.44
50632;BME280;49583;45.590;-122.498;2023-02-15T03:25:36;102151.23;;;5.54;64.75
50632;BME280;49583;45.590;-122.498;2023-02-15T03:27:58;102153.94;;;5.54;65.01
50632;BME280;49583;45.590;-122.498;2023-02-15T03:30:14;102154.43;;;5.55;64.81
50632;BME280;49583;45.590;-122.498;2023-02-15T03:32:31;102156.80;;;5.55;64.85
50632;BME280;49583;45.590;-122.498;2023-02-15T03:34:46;102159.16;;;5.53;64.92
50632;BME280;49583;45.590;-122.498;2023-02-15T03:37:07;102165.37;;;5.51;64.89
50632;BME280;49583;45.590;-122.498;2023-02-15T03:39:28;102164.50;;;5.49;65.01
50632;BME280;49583;45.590;-122.498;2023-02-15T03:41:49;102166.45;;;5.48;65.18
50632;BME280;49583;45.590;-122.498;2023-02-15T03:44:09;102173.85;;;5.48;65.09
50632;BME280;49583;45.590;-122.498;2023-02-15T03:46:27;102176.41;;;5.48;64.99
50632;BME280;49583;45.590;-122.498;2023-02-15T03:48:44;102181.41;;;5.47;65.18
50632;BME280;49583;45.590;-122.498;2023-02-15T03:51:01;102183.15;;;5.47;65.37
50632;BME280;49583;45.590;-122.498;2023-02-15T03:53:32;102183.80;;;5.49;65.51
50632;BME280;49583;45.590;-122.498;2023-02-15T03:55:48;102187.17;;;5.51;65.35
50632;BME280;49583;45.590;-122.498;2023-02-15T03:58:02;102182.66;;;5.51;65.62
50632;BME280;49583;45.590;-122.498;2023-02-15T04:00:33;102191.67;;;5.48;65.37
50632;BME280;49583;45.590;-122.498;2023-02-15T04:03:26;102198.15;;;5.48;65.29
50632;BME280;49583;45.590;-122.498;2023-02-15T04:05:42;102197.71;;;5.47;65.45
50632;BME280;49583;45.590;-122.498;2023-02-15T04:07:56;102202.11;;;5.47;65.58
50632;BME280;49583;45.590;-122.498;2023-02-15T04:10:09;102208.59;;;5.47;65.71
50632;BME280;49583;45.590;-122.498;2023-02-15T04:12:39;102212.77;;;5.46;65.58
50632;BME280;49583;45.590;-122.498;2023-02-15T04:14:53;102216.09;;;5.45;65.50
50632;BME280;49583;45.590;-122.498;2023-02-15T04:17:23;102219.98;;;5.42;65.64
50632;BME280;49583;45.590;-122.498;2023-02-15T04:19:37;102219.14;;;5.40;65.69
50632;BME280;49583;45.590;-122.498;2023-02-15T04:22:07;102216.99;;;5.36;65.77
50632;BME280;49583;45.590;-122.498;2023-02-15T04:24:37;102225.16;;;5.35;65.69
50632;BME280;49583;45.590;-122.498;2023-02-15T04:27:06;102228.51;;;5.31;65.59
50632;BME280;49583;45.590;-122.498;2023-02-15T04:29:19;102225.70;;;5.29;65.70
50632;BME280;49583;45.590;-122.498;2023-02-15T04:31:32;102227.59;;;5.30;65.75
50632;BME280;49583;45.590;-122.498;2023-02-15T04:33:46;102230.25;;;5.30;65.90
50632;BME280;49583;45.590;-122.498;2023-02-15T04:36:00;102232.75;;;5.29;66.04
50632;BME280;49583;45.590;-122.498;2023-02-15T04:38:16;102231.34;;;5.25;65.83
50632;BME280;49583;45.590;-122.498;2023-02-15T04:40:28;102235.98;;;5.21;66.08
50632;BME280;49583;45.590;-122.498;2023-02-15T04:42:42;102239.38;;;5.19;66.21
50632;BME280;49583;45.590;-122.498;2023-02-15T04:44:54;102239.40;;;5.16;66.13
50632;BME280;49583;45.590;-122.498;2023-02-15T04:47:08;102239.58;;;5.13;66.15
50632;BME280;49583;45.590;-122.498;2023-02-15T04:49:21;102244.25;;;5.12;66.23
50632;BME280;49583;45.590;-122.498;2023-02-15T04:51:35;102239.15;;;5.11;65.94
50632;BME280;49583;45.590;-122.498;2023-02-15T04:53:47;102243.78;;;5.11;66.09
50632;BME280;49583;45.590;-122.498;2023-02-15T04:56:02;102241.30;;;5.10;66.29
50632;BME280;49583;45.590;-122.498;2023-02-15T04:58:16;102243.75;;;5.09;66.20
50632;BME280;49583;45.590;-122.498;2023-02-15T05:00:28;102245.49;;;5.09;66.43
50632;BME280;49583;45.590;-122.498;2023-02-15T05:02:41;102248.98;;;5.07;66.08
50632;BME280;49583;45.590;-122.498;2023-02-15T05:04:55;102255.06;;;5.06;66.38
50632;BME280;49583;45.590;-122.498;2023-02-15T05:07:10;102256.71;;;5.03;65.99
50632;BME280;49583;45.590;-122.498;2023-02-15T05:09:24;102256.52;;;5.00;66.47
50632;BME280;49583;45.590;-122.498;2023-02-15T05:11:38;102259.57;;;4.98;66.53
50632;BME280;49583;45.590;-122.498;2023-02-15T05:13:51;102262.84;;;4.96;66.33
50632;BME280;49583;45.590;-122.498;2023-02-15T05:16:04;102267.98;;;4.93;66.27
50632;BME280;49583;45.590;-122.498;2023-02-15T05:18:18;102270.98;;;4.90;66.68
50632;BME280;49583;45.590;-122.498;2023-02-15T05:20:31;102271.23;;;4.87;66.49
50632;BME280;49583;45.590;-122.498;2023-02-15T05:22:45;102272.11;;;4.84;66.49
50632;BME280;49583;45.590;-122.498;2023-02-15T05:24:58;102268.77;;;4.79;66.53
50632;BME280;49583;45.590;-122.498;2023-02-15T05:27:30;102270.44;;;4.73;66.51
50632;BME280;49583;45.590;-122.498;2023-02-15T05:29:59;102270.68;;;4.70;66.76
50632;BME280;49583;45.590;-122.498;2023-02-15T05:32:14;102271.02;;;4.66;66.58
50632;BME280;49583;45.590;-122.498;2023-02-15T05:34:28;102276.21;;;4.61;66.51
50632;BME280;49583;45.590;-122.498;2023-02-15T05:36:41;102278.20;;;4.55;66.63
50632;BME280;49583;45.590;-122.498;2023-02-15T05:38:55;102280.34;;;4.50;66.66
50632;BME280;49583;45.590;-122.498;2023-02-15T05:41:09;102281.83;;;4.45;66.87
50632;BME280;49583;45.590;-122.498;2023-02-15T05:43:22;102286.31;;;4.41;66.79
50632;BME280;49583;45.590;-122.498;2023-02-15T05:45:36;102285.89;;;4.38;66.85
50632;BME280;49583;45.590;-122.498;2023-02-15T05:47:50;102287.16;;;4.33;67.10
50632;BME280;49583;45.590;-122.498;2023-02-15T05:50:05;102288.05;;;4.28;66.91
50632;BME280;49583;45.590;-122.498;2023-02-15T05:52:18;102287.14;;;4.21;66.82
50632;BME280;49583;45.590;-122.498;2023-02-15T05:54:33;102282.73;;;4.14;66.91
50632;BME280;49583;45.590;-122.498;2023-02-15T05:56:46;102285.24;;;4.08;67.13
50632;BME280;49583;45.590;-122.498;2023-02-15T05:58:59;102287.75;;;4.03;66.88
50632;BME280;49583;45.590;-122.498;2023-02-15T06:01:14;102287.05;;;3.98;67.28
50632;BME280;49583;45.590;-122.498;2023-02-15T06:03:28;102287.84;;;3.92;67.40
50632;BME280;49583;45.590;-122.498;2023-02-15T06:05:40;102290.77;;;3.88;67.45
50632;BME280;49583;45.590;-122.498;2023-02-15T06:07:53;102291.06;;;3.82;67.52
50632;BME280;49583;45.590;-122.498;2023-02-15T06:10:08;102293.61;;;3.78;67.72
50632;BME280;49583;45.590;-122.498;2023-02-15T06:12:21;102293.90;;;3.73;67.47
50632;BME280;49583;45.590;-122.498;2023-02-15T06:14:35;102290.55;;;3.64;67.43
50632;BME280;49583;45.590;-122.498;2023-02-15T06:16:49;102297.65;;;3.58;67.50
50632;BME280;49583;45.590;-122.498;2023-02-15T06:19:02;102295.72;;;3.54;67.85
50632;BME280;49583;45.590;-122.498;2023-02-15T06:21:15;102299.61;;;3.51;67.91
50632;BME280;49583;45.590;-122.498;2023-02-15T06:23:28;102296.75;;;3.48;68.00
50632;BME280;49583;45.590;-122.498;2023-02-15T06:25:41;102298.48;;;3.45;68.13
50632;BME280;49583;45.590;-122.498;2023-02-15T06:27:54;102302.48;;;3.43;68.30
50632;BME280;49583;45.590;-122.498;2023-02-15T06:30:09;102297.63;;;3.40;68.07
50632;BME280;49583;45.590;-122.498;2023-02-15T06:32:22;102297.52;;;3.37;68.33
50632;BME280;49583;45.590;-122.498;2023-02-15T06:34:35;102295.55;;;3.34;68.27
50632;BME280;49583;45.590;-122.498;2023-02-15T06:36:48;102297.78;;;3.32;68.22
50632;BME280;49583;45.590;-122.498;2023-02-15T06:39:01;102294.64;;;3.28;68.29
50632;BME280;49583;45.590;-122.498;2023-02-15T06:41:15;102294.27;;;3.25;68.23
50632;BME280;49583;45.590;-122.498;2023-02-15T06:43:28;102292.86;;;3.22;68.44
50632;BME280;49583;45.590;-122.498;2023-02-15T06:45:41;102295.08;;;3.18;68.35
50632;BME280;49583;45.590;-122.498;2023-02-15T06:47:55;102297.02;;;3.14;68.46
50632;BME280;49583;45.590;-122.498;2023-02-15T06:50:09;102292.91;;;3.06;68.31
50632;BME280;49583;45.590;-122.498;2023-02-15T06:52:21;102298.58;;;3.01;68.22
50632;BME280;49583;45.590;-122.498;2023-02-15T06:54:35;102301.92;;;2.94;68.48
50632;BME280;49583;45.590;-122.498;2023-02-15T06:56:47;102299.91;;;2.87;68.36
50632;BME280;49583;45.590;-122.498;2023-02-15T06:59:00;102298.91;;;2.82;68.54
50632;BME280;49583;45.590;-122.498;2023-02-15T07:01:13;102303.67;;;2.78;68.54
50632;BME280;49583;45.590;-122.498;2023-02-15T07:03:26;102303.23;;;2.76;68.93
50632;BME280;49583;45.590;-122.498;2023-02-15T07:05:40;102303.88;;;2.74;68.98
50632;BME280;49583;45.590;-122.498;2023-02-15T07:07:57;102311.55;;;2.74;69.03
50632;BME280;49583;45.590;-122.498;2023-02-15T07:10:11;102312.85;;;2.72;69.07
50632;BME280;49583;45.590;-122.498;2023-02-15T07:12:24;102314.33;;;2.69;69.01
50632;BME280;49583;45.590;-122.498;2023-02-15T07:14:56;102319.66;;;2.67;69.24
50632;BME280;49583;45.590;-122.498;2023-02-15T07:17:09;102320.29;;;2.64;69.14
50632;BME280;49583;45.590;-122.498;2023-02-15T07:19:41;102321.98;;;2.62;69.42
50632;BME280;49583;45.590;-122.498;2023-02-15T07:21:54;102320.84;;;2.60;69.42
50632;BME280;49583;45.590;-122.498;2023-02-15T07:24:08;102322.66;;;2.59;69.40
50632;BME280;49583;45.590;-122.498;2023-02-15T07:26:22;102326.48;;;2.57;69.36
50632;BME280;49583;45.590;-122.498;2023-02-15T07:28:37;102328.19;;;2.55;69.45
50632;BME280;49583;45.590;-122.498;2023-02-15T07:30:51;102328.49;;;2.54;69.76
50632;BME280;49583;45.590;-122.498;2023-02-15T07:33:05;102329.02;;;2.52;69.91
50632;BME280;49583;45.590;-122.498;2023-02-15T07:35:38;102329.19;;;2.52;70.09
50632;BME280;49583;45.590;-122.498;2023-02-15T07:38:00;102329.56;;;2.52;69.96
50632;BME280;49583;45.590;-122.498;2023-02-15T07:40:14;102331.23;;;2.49;69.96
50632;BME280;49583;45.590;-122.498;2023-02-15T07:42:27;102336.24;;;2.46;69.84
50632;BME280;49583;45.590;-122.498;2023-02-15T07:44:43;102337.95;;;2.43;70.05
50632;BME280;49583;45.590;-122.498;2023-02-15T07:46:57;102338.59;;;2.41;70.14
50632;BME280;49583;45.590;-122.498;2023-02-15T07:49:12;102345.14;;;2.39;70.08
50632;BME280;49583;45.590;-122.498;2023-02-15T07:51:26;102345.12;;;2.36;70.06
50632;BME280;49583;45.590;-122.498;2023-02-15T07:53:40;102347.16;;;2.33;70.13
50632;BME280;49583;45.590;-122.498;2023-02-15T07:55:54;102347.00;;;2.31;69.97
50632;BME280;49583;45.590;-122.498;2023-02-15T07:58:07;102348.97;;;2.27;69.98
50632;BME280;49583;45.590;-122.498;2023-02-15T08:00:22;102353.92;;;2.22;69.91
50632;BME280;49583;45.590;-122.498;2023-02-15T08:02:35;102352.33;;;2.16;69.72
50632;BME280;49583;45.590;-122.498;2023-02-15T08:04:49;102354.63;;;2.12;69.78
50632;BME280;49583;45.590;-122.498;2023-02-15T08:07:04;102356.77;;;2.09;69.99
50632;BME280;49583;45.590;-122.498;2023-02-15T08:09:18;102362.84;;;2.05;69.97
50632;BME280;49583;45.590;-122.498;2023-02-15T08:11:32;102364.45;;;2.02;70.00
50632;BME280;49583;45.590;-122.498;2023-02-15T08:13:50;102367.56;;;1.99;70.14
50632;BME280;49583;45.590;-122.498;2023-02-15T08:16:08;102370.77;;;1.96;70.18
50632;BME280;49583;45.590;-122.498;2023-02-15T08:18:23;102368.45;;;1.92;70.14
50632;BME280;49583;45.590;-122.498;2023-02-15T08:20:36;102364.58;;;1.89;69.99
50632;BME280;49583;45.590;-122.498;2023-02-15T08:22:50;102362.93;;;1.85;70.11
50632;BME280;49583;45.590;-122.498;2023-02-15T08:25:03;102359.83;;;1.81;70.02
50632;BME280;49583;45.590;-122.498;2023-02-15T08:27:17;102359.42;;;1.77;70.04
50632;BME280;49583;45.590;-122.498;2023-02-15T08:29:38;102359.65;;;1.72;69.97
50632;BME280;49583;45.590;-122.498;2023-02-15T08:31:55;102355.02;;;1.68;69.99
50632;BME280;49583;45.590;-122.498;2023-02-15T08:34:14;102356.55;;;1.63;70.00
50632;BME280;49583;45.590;-122.498;2023-02-15T08:36:28;102356.96;;;1.59;70.18
50632;BME280;49583;45.590;-122.498;2023-02-15T08:38:43;102360.65;;;1.55;70.14
50632;BME280;49583;45.590;-122.498;2023-02-15T08:40:57;102360.95;;;1.51;70.22
50632;BME280;49583;45.590;-122.498;2023-02-15T08:43:10;102360.96;;;1.47;70.31
50632;BME280;49583;45.590;-122.498;2023-02-15T08:45:24;102363.39;;;1.45;70.51
50632;BME280;49583;45.590;-122.498;2023-02-15T08:47:37;102365.52;;;1.43;70.39
50632;BME280;49583;45.590;-122.498;2023-02-15T08:49:51;102370.63;;;1.41;70.70
50632;BME280;49583;45.590;-122.498;2023-02-15T08:52:04;102371.11;;;1.41;70.78
50632;BME280;49583;45.590;-122.498;2023-02-15T08:54:20;102370.95;;;1.39;70.68
50632;BME280;49583;45.590;-122.498;2023-02-15T08:56:36;102367.56;;;1.36;70.84
50632;BME280;49583;45.590;-122.498;2023-02-15T08:58:50;102365.71;;;1.34;71.07
50632;BME280;49583;45.590;-122.498;2023-02-15T09:01:07;102364.90;;;1.34;71.16
50632;BME280;49583;45.590;-122.498;2023-02-15T09:03:20;102363.98;;;1.34;71.17
50632;BME280;49583;45.590;-122.498;2023-02-15T09:05:33;102364.84;;;1.34;71.16
50632;BME280;49583;45.590;-122.498;2023-02-15T09:07:46;102365.27;;;1.34;71.23
50632;BME280;49583;45.590;-122.498;2023-02-15T09:09:59;102371.14;;;1.33;71.31
50632;BME280;49583;45.590;-122.498;2023-02-15T09:12:12;102371.03;;;1.33;71.37
50632;BME280;49583;45.590;-122.498;2023-02-15T09:14:27;102374.42;;;1.32;71.40
50632;BME280;49583;45.590;-122.498;2023-02-15T09:16:41;102379.83;;;1.32;71.29
50632;BME280;49583;45.590;-122.498;2023-02-15T09:18:57;102378.59;;;1.31;71.27
50632;BME280;49583;45.590;-122.498;2023-02-15T09:21:13;102377.82;;;1.30;71.26
50632;BME280;49583;45.590;-122.498;2023-02-15T09:23:27;102384.13;;;1.29;71.27
50632;BME280;49583;45.590;-122.498;2023-02-15T09:25:40;102387.91;;;1.26;71.28
50632;BME280;49583;45.590;-122.498;2023-02-15T09:27:53;102386.55;;;1.24;71.72
50632;BME280;49583;45.590;-122.498;2023-02-15T09:30:08;102384.18;;;1.24;71.92
50632;BME280;49583;45.590;-122.498;2023-02-15T09:32:21;102380.13;;;1.25;72.03
50632;BME280;49583;45.590;-122.498;2023-02-15T09:34:36;102382.62;;;1.23;71.70
50632;BME280;49583;45.590;-122.498;2023-02-15T09:36:50;102383.50;;;1.20;71.58
50632;BME280;49583;45.590;-122.498;2023-02-15T09:39:07;102386.80;;;1.17;71.47
50632;BME280;49583;45.590;-122.498;2023-02-15T09:41:34;102390.66;;;1.13;71.33
50632;BME280;49583;45.590;-122.498;2023-02-15T09:43:59;102397.05;;;1.10;71.52
50632;BME280;49583;45.590;-122.498;2023-02-15T09:46:30;102394.81;;;1.08;71.57
50632;BME280;49583;45.590;-122.498;2023-02-15T09:48:50;102396.67;;;1.05;71.72
50632;BME280;49583;45.590;-122.498;2023-02-15T09:51:16;102394.52;;;1.02;71.68
50632;BME280;49583;45.590;-122.498;2023-02-15T09:53:50;102396.25;;;0.97;71.69
50632;BME280;49583;45.590;-122.498;2023-02-15T09:56:12;102395.30;;;0.92;71.78
50632;BME280;49583;45.590;-122.498;2023-02-15T09:58:36;102397.52;;;0.90;71.95
50632;BME280;49583;45.590;-122.498;2023-02-15T10:01:00;102395.67;;;0.89;72.35
50632;BME280;49583;45.590;-122.498;2023-02-15T10:06:00;102398.81;;;0.89;72.66
50632;BME280;49583;45.590;-122.498;2023-02-15T10:11:14;102393.54;;;0.86;72.82
50632;BME280;49583;45.590;-122.498;2023-02-15T10:13:52;102395.38;;;0.85;72.68
50632;BME280;49583;45.590;-122.498;2023-02-15T10:16:20;102392.73;;;0.84;72.88
50632;BME280;49583;45.590;-122.498;2023-02-15T10:18:52;102395.31;;;0.84;73.20
50632;BME280;49583;45.590;-122.498;2023-02-15T10:21:11;102399.21;;;0.85;73.24
50632;BME280;49583;45.590;-122.498;2023-02-15T10:24:01;102402.75;;;0.84;73.19
50632;BME280;49583;45.590;-122.498;2023-02-15T10:26:20;102405.83;;;0.84;73.46
50632;BME280;49583;45.590;-122.498;2023-02-15T10:28:38;102407.61;;;0.84;73.38
50632;BME280;49583;45.590;-122.498;2023-02-15T10:31:00;102409.27;;;0.84;73.41
50632;BME280;49583;45.590;-122.498;2023-02-15T10:33:27;102412.08;;;0.84;73.65
50632;BME280;49583;45.590;-122.498;2023-02-15T10:35:57;102418.73;;;0.84;73.51
50632;BME280;49583;45.590;-122.498;2023-02-15T10:38:25;102421.11;;;0.82;73.28
50632;BME280;49583;45.590;-122.498;2023-02-15T10:40:50;102419.11;;;0.78;73.23
50632;BME280;49583;45.590;-122.498;2023-02-15T10:43:24;102418.41;;;0.76;73.11
50632;BME280;49583;45.590;-122.498;2023-02-15T10:45:49;102417.16;;;0.72;73.31
50632;BME280;49583;45.590;-122.498;2023-02-15T10:48:20;102421.54;;;0.69;73.28
50632;BME280;49583;45.590;-122.498;2023-02-15T10:50:46;102424.16;;;0.67;73.29
50632;BME280;49583;45.590;-122.498;2023-02-15T10:53:12;102427.79;;;0.67;73.54
50632;BME280;49583;45.590;-122.498;2023-02-15T10:55:34;102435.83;;;0.68;73.52
50632;BME280;49583;45.590;-122.498;2023-02-15T10:57:56;102437.42;;;0.66;73.58
50632;BME280;49583;45.590;-122.498;2023-02-15T11:00:17;102443.60;;;0.65;73.42
50632;BME280;49583;45.590;-122.498;2023-02-15T11:02:49;102446.11;;;0.64;73.53
50632;BME280;49583;45.590;-122.498;2023-02-15T11:05:20;102448.15;;;0.63;73.69
50632;BME280;49583;45.590;-122.498;2023-02-15T11:07:40;102448.69;;;0.64;73.69
50632;BME280;49583;45.590;-122.498;2023-02-15T11:09:56;102446.05;;;0.63;73.72
50632;BME280;49583;45.590;-122.498;2023-02-15T11:12:17;102447.33;;;0.63;73.69
50632;BME280;49583;45.590;-122.498;2023-02-15T11:14:38;102453.70;;;0.63;73.83
50632;BME280;49583;45.590;-122.498;2023-02-15T11:16:56;102460.44;;;0.61;73.84
50632;BME280;49583;45.590;-122.498;2023-02-15T11:19:15;102455.24;;;0.60;73.77
50632;BME280;49583;45.590;-122.498;2023-02-15T11:21:34;102457.35;;;0.60;73.76
50632;BME280;49583;45.590;-122.498;2023-02-15T11:23:51;102458.15;;;0.60;73.93
50632;BME280;49583;45.590;-122.498;2023-02-15T11:26:09;102458.50;;;0.59;73.92
50632;BME280;49583;45.590;-122.498;2023-02-15T11:28:33;102459.28;;;0.57;73.81
50632;BME280;49583;45.590;-122.498;2023-02-15T11:30:51;102463.81;;;0.57;73.90
50632;BME280;49583;45.590;-122.498;2023-02-15T11:33:12;102467.75;;;0.57;74.13
50632;BME280;49583;45.590;-122.498;2023-02-15T11:35:31;102461.54;;;0.57;74.06
50632;BME280;49583;45.590;-122.498;2023-02-15T11:37:48;102465.79;;;0.56;74.03
50632;BME280;49583;45.590;-122.498;2023-02-15T11:40:06;102469.77;;;0.55;74.05
50632;BME280;49583;45.590;-122.498;2023-02-15T11:42:28;102467.00;;;0.53;74.13
50632;BME280;49583;45.590;-122.498;2023-02-15T11:44:47;102469.52;;;0.49;73.93
50632;BME280;49583;45.590;-122.498;2023-02-15T11:47:07;102470.58;;;0.43;73.85
50632;BME280;49583;45.590;-122.498;2023-02-15T11:49:29;102467.44;;;0.38;73.70
50632;BME280;49583;45.590;-122.498;2023-02-15T11:51:43;102469.41;;;0.33;73.85
50632;BME280;49583;45.590;-122.498;2023-02-15T11:53:58;102469.30;;;0.29;73.63
50632;BME280;49583;45.590;-122.498;2023-02-15T11:56:17;102470.29;;;0.25;73.76